Terminal Aerodrome Forecast
Issued by NWS

Home | Current Version | Previous Version | Text Only | Print | Product List | Glossary On
Versions: 1 2 3 4 5 6 7 8 9 10 11 12 13 14 15 16 17 18 19 20 21 22 23
000
FTUS42 KKEY 162327
TAFMTH
TAF
KMTH 162327Z 1700/1724 03010KT P6SM SCT040 SCT070
      TEMPO 1700/1703 BKN070
     FM170900 01009G16KT P6SM SCT010 BKN050
     FM171400 01012G19KT P6SM SCT050
     FM171800 35012G20KT P6SM SCT250=

USA.gov is the U.S. government's official web portal to all federal, state and local government web resources and services.